Time;durP1;ratioP1;P1;durP2;ratioP2;P2;SDS_P1;SDS_P2;PMS_P1;PMS_P2;Temp;Humidity;BMP_temperature;BMP_pressure;BME280_temperature;BME280_humidity;BME280_pressure;Samples;Min_cycle;Max_cycle;Signal;HPM_P1;HPM_P2
2021/09/19 00:00:12;;;;;;;11.63;7.63;;;15.50;99.90;;;;;;5032480;28;20029;-81
2021/09/19 00:02:38;;;;;;;11.32;7.30;;;;;;;;;;5042773;28;20037;-83
2021/09/19 00:05:05;;;;;;;11.90;8.63;;;;;;;;;;5034885;28;20030;-82
2021/09/19 00:07:31;;;;;;;10.30;7.35;;;;;;;;;;5033337;28;20033;-83
2021/09/19 00:09:57;;;;;;;11.20;7.72;;;;;;;;;;5041038;28;20176;-83
2021/09/19 00:12:23;;;;;;;10.07;7.15;;;;;;;;;;5036698;28;20082;-81
2021/09/19 00:14:49;;;;;;;11.48;7.68;;;;;;;;;;5034737;28;20053;-83
2021/09/19 00:17:17;;;;;;;11.93;6.88;;;;;;;;;;5026163;28;20037;-81
2021/09/19 00:19:43;;;;;;;12.88;7.32;;;;;;;;;;5039421;28;20462;-85
2021/09/19 00:22:09;;;;;;;9.48;7.00;;;;;;;;;;5042314;28;20025;-81
2021/09/19 00:24:35;;;;;;;10.07;7.38;;;;;;;;;;5042487;28;20055;-81
2021/09/19 00:27:03;;;;;;;13.25;6.53;;;;;;;;;;5043499;28;20037;-84
2021/09/19 00:29:29;;;;;;;10.35;6.63;;;;;;;;;;5036143;28;20067;-84
2021/09/19 00:31:55;;;;;;;9.15;6.72;;;;;;;;;;5040373;28;20025;-83
2021/09/19 00:34:21;;;;;;;9.40;6.80;;;;;;;;;;5040892;28;20508;-82
2021/09/19 00:36:47;;;;;;;10.23;6.88;;;;;;;;;;5036755;28;20096;-82
2021/09/19 00:39:13;;;;;;;10.20;6.78;;;;;;;;;;5036984;28;20080;-83
2021/09/19 00:41:39;;;;;;;9.95;7.03;;;;;;;;;;5038365;28;20033;-82
2021/09/19 00:44:08;;;;;;;10.65;7.32;;;15.20;99.90;;;;;;5041685;28;20057;-82
2021/09/19 00:46:34;;;;;;;14.98;7.15;;;15.20;99.90;;;;;;5061223;28;20021;-80
2021/09/19 00:49:00;;;;;;;10.70;6.85;;;;;;;;;;5038919;28;20026;-83
2021/09/19 00:51:28;;;;;;;12.30;7.05;;;15.30;99.90;;;;;;5034492;28;20044;-79
2021/09/19 00:53:56;;;;;;;9.40;7.10;;;15.20;99.90;;;;;;5038316;28;20084;-82
2021/09/19 00:56:27;;;;;;;8.77;6.43;;;;;;;;;;5026289;28;20049;-81
2021/09/19 00:58:53;;;;;;;10.57;7.30;;;;;;;;;;5059168;28;20032;-82
2021/09/19 01:01:19;;;;;;;11.38;6.75;;;;;;;;;;5038782;28;20037;-83
2021/09/19 01:03:45;;;;;;;8.52;6.20;;;;;;;;;;5042978;28;21505;-82
2021/09/19 01:06:13;;;;;;;11.07;6.45;;;15.20;99.90;;;;;;5043153;28;20040;-80
2021/09/19 01:08:42;;;;;;;10.98;6.47;;;;;;;;;;5042394;28;20056;-81
2021/09/19 01:11:13;;;;;;;9.20;6.53;;;15.10;99.90;;;;;;5057171;28;20032;-82
2021/09/19 01:13:41;;;;;;;9.30;6.25;;;;;;;;;;5060944;28;20044;-84
2021/09/19 01:16:08;;;;;;;9.20;6.50;;;;;;;;;;5045059;28;20049;-81
2021/09/19 01:18:35;;;;;;;9.13;6.28;;;;;;;;;;5039959;28;20034;-82
2021/09/19 01:21:01;;;;;;;10.23;6.15;;;;;;;;;;5040093;28;20025;-80
2021/09/19 01:23:29;;;;;;;11.07;5.88;;;;;;;;;;5038337;28;20029;-82
2021/09/19 01:25:55;;;;;;;9.18;6.05;;;;;;;;;;5037795;28;20029;-83
2021/09/19 01:28:21;;;;;;;11.32;6.57;;;;;;;;;;5038735;28;20036;-81
2021/09/19 01:30:47;;;;;;;9.35;6.15;;;;;;;;;;5039008;28;20110;-82
2021/09/19 01:33:13;;;;;;;9.98;6.38;;;;;;;;;;5053963;28;20025;-81
2021/09/19 01:35:39;;;;;;;10.60;5.95;;;;;;;;;;5038399;28;20080;-80
2021/09/19 01:38:05;;;;;;;8.07;6.03;;;;;;;;;;5039169;28;20026;-81
2021/09/19 01:40:32;;;;;;;8.85;6.15;;;;;;;;;;5041117;28;20123;-82
2021/09/19 01:43:01;;;;;;;7.70;5.72;;;;;;;;;;5042200;28;20029;-79
2021/09/19 01:45:28;;;;;;;11.00;6.33;;;15.20;99.90;;;;;;5041835;28;20025;-81
2021/09/19 01:47:54;;;;;;;8.88;6.50;;;;;;;;;;5038106;28;20038;-82
2021/09/19 01:50:21;;;;;;;10.13;5.55;;;;;;;;;;5035160;28;20069;-83
2021/09/19 01:52:48;;;;;;;7.72;5.05;;;;;;;;;;5041854;28;20097;-83
2021/09/19 01:55:14;;;;;;;8.60;5.75;;;;;;;;;;5043987;28;20025;-83
2021/09/19 01:57:40;;;;;;;7.78;5.72;;;;;;;;;;5037371;28;20056;-82
2021/09/19 02:00:07;;;;;;;8.90;6.00;;;15.20;99.90;;;;;;5047485;28;20025;-83
2021/09/19 02:02:37;;;;;;;9.75;5.82;;;;;;;;;;5055348;28;20021;-80
2021/09/19 02:05:05;;;;;;;7.23;5.53;;;15.00;99.90;;;;;;5038886;28;20018;-82
2021/09/19 02:07:31;;;;;;;9.13;5.60;;;;;;;;;;5033339;28;20068;-82
2021/09/19 02:09:57;;;;;;;7.97;5.32;;;;;;;;;;5036994;28;20052;-82
2021/09/19 02:12:23;;;;;;;7.55;5.13;;;;;;;;;;5041674;28;20049;-82
2021/09/19 02:14:49;;;;;;;7.60;5.05;;;;;;;;;;5042291;28;20054;-81
2021/09/19 02:17:16;;;;;;;7.53;5.22;;;;;;;;;;5045489;28;20036;-81
2021/09/19 02:19:42;;;;;;;7.65;4.95;;;;;;;;;;5042144;28;20032;-82
2021/09/19 02:22:09;;;;;;;7.85;5.50;;;;;;;;;;5041003;28;21387;-81
2021/09/19 02:24:35;;;;;;;8.60;5.80;;;;;;;;;;5036260;28;20026;-83
2021/09/19 02:27:01;;;;;;;8.25;5.25;;;;;;;;;;5039085;28;20022;-81
2021/09/19 02:29:27;;;;;;;7.55;4.90;;;;;;;;;;5033231;28;20021;-83
2021/09/19 02:31:53;;;;;;;7.38;4.80;;;;;;;;;;5045055;28;20033;-81
2021/09/19 02:34:20;;;;;;;7.95;5.18;;;;;;;;;;5046745;28;20101;-81
2021/09/19 02:36:46;;;;;;;7.85;4.90;;;;;;;;;;5044358;28;20036;-81
2021/09/19 02:39:12;;;;;;;7.20;5.10;;;;;;;;;;5041331;28;20093;-82
2021/09/19 02:41:39;;;;;;;7.43;5.20;;;14.80;99.90;;;;;;5038916;28;20029;-81
2021/09/19 02:44:05;;;;;;;8.35;4.80;;;;;;;;;;5043262;28;20025;-82
2021/09/19 02:46:31;;;;;;;6.95;4.65;;;;;;;;;;5040453;28;20030;-84
2021/09/19 02:48:57;;;;;;;7.55;5.03;;;;;;;;;;5044396;28;20032;-85
2021/09/19 02:51:23;;;;;;;8.15;5.20;;;;;;;;;;5035789;28;20033;-81
2021/09/19 02:53:49;;;;;;;7.97;4.90;;;;;;;;;;5038061;28;20035;-81
2021/09/19 02:56:15;;;;;;;8.55;5.07;;;;;;;;;;5046261;28;20061;-81
2021/09/19 02:58:41;;;;;;;8.32;4.65;;;;;;;;;;5036430;28;20044;-82
2021/09/19 03:01:07;;;;;;;7.78;4.65;;;;;;;;;;5046382;28;20053;-82
2021/09/19 03:03:34;;;;;;;7.85;5.05;;;14.70;99.90;;;;;;5030654;28;20041;-83
2021/09/19 03:06:00;;;;;;;9.00;5.57;;;;;;;;;;5038901;28;20061;-81
2021/09/19 03:08:26;;;;;;;7.88;4.90;;;;;;;;;;5031175;28;20357;-82
2021/09/19 03:10:52;;;;;;;9.35;5.72;;;;;;;;;;5032558;28;20026;-82
2021/09/19 03:13:18;;;;;;;8.23;5.68;;;;;;;;;;5033590;28;20037;-83
2021/09/19 03:15:44;;;;;;;8.20;5.20;;;;;;;;;;5035613;28;20034;-85
2021/09/19 03:18:10;;;;;;;7.15;5.10;;;;;;;;;;5041968;28;20022;-79
2021/09/19 03:20:36;;;;;;;7.55;5.15;;;;;;;;;;5033235;28;20454;-82
2021/09/19 03:23:02;;;;;;;6.00;4.05;;;;;;;;;;5039703;28;20022;-83
2021/09/19 03:25:28;;;;;;;6.57;4.15;;;;;;;;;;5035577;28;20034;-85
2021/09/19 03:27:54;;;;;;;7.10;4.70;;;;;;;;;;5039850;28;20077;-81
2021/09/19 03:30:20;;;;;;;7.47;4.18;;;;;;;;;;5042095;28;20037;-83
2021/09/19 03:32:46;;;;;;;7.57;4.55;;;;;;;;;;5033552;28;20033;-85
2021/09/19 03:35:13;;;;;;;9.13;4.65;;;;;;;;;;5037881;28;20025;-83
2021/09/19 03:37:39;;;;;;;6.93;4.82;;;;;;;;;;5037827;28;20028;-82
2021/09/19 03:40:06;;;;;;;9.18;4.78;;;;;;;;;;5037035;28;20045;-82
2021/09/19 03:42:32;;;;;;;7.68;4.65;;;;;;;;;;5037760;28;20495;-82
2021/09/19 03:44:58;;;;;;;9.02;5.13;;;;;;;;;;5036637;28;20041;-81
2021/09/19 03:47:24;;;;;;;7.40;4.70;;;;;;;;;;5043315;28;20022;-80
2021/09/19 03:49:50;;;;;;;7.03;4.50;;;;;;;;;;5032300;28;20033;-79
2021/09/19 03:52:16;;;;;;;7.32;4.63;;;;;;;;;;5054651;28;20101;-81
2021/09/19 03:54:42;;;;;;;7.28;5.05;;;;;;;;;;5038126;28;20042;-82
2021/09/19 03:57:08;;;;;;;7.50;4.57;;;;;;;;;;5035614;28;20025;-82
2021/09/19 03:59:34;;;;;;;6.90;4.10;;;;;;;;;;5037076;28;20033;-82
2021/09/19 04:02:00;;;;;;;7.07;4.70;;;;;;;;;;5037244;28;20082;-84
2021/09/19 04:04:26;;;;;;;7.45;4.53;;;;;;;;;;5030310;28;20085;-81
2021/09/19 04:06:52;;;;;;;6.90;4.60;;;14.50;99.90;;;;;;5036185;28;20029;-81
2021/09/19 04:09:18;;;;;;;7.00;4.53;;;;;;;;;;5038410;28;20021;-79
2021/09/19 04:11:44;;;;;;;7.82;4.03;;;;;;;;;;5031927;28;20095;-81
2021/09/19 04:14:10;;;;;;;6.53;4.43;;;;;;;;;;5038526;28;20026;-82
2021/09/19 04:16:36;;;;;;;5.75;4.03;;;;;;;;;;5045820;28;20056;-82
2021/09/19 04:19:03;;;;;;;5.88;4.28;;;;;;;;;;5037728;28;20540;-81
2021/09/19 04:21:31;;;;;;;6.63;4.13;;;;;;;;;;5038833;28;20021;-83
2021/09/19 04:23:57;;;;;;;8.23;4.15;;;;;;;;;;5040923;28;20106;-82
2021/09/19 04:26:23;;;;;;;6.68;4.13;;;;;;;;;;5039144;28;20021;-83
2021/09/19 04:28:49;;;;;;;5.72;3.95;;;;;;;;;;5033925;28;20017;-83
2021/09/19 04:31:15;;;;;;;8.95;4.28;;;;;;;;;;5037108;28;20033;-80
2021/09/19 04:33:41;;;;;;;6.40;3.80;;;;;;;;;;5048613;28;20033;-79
2021/09/19 04:36:07;;;;;;;6.70;4.13;;;;;;;;;;5034343;28;20529;-80
2021/09/19 04:38:33;;;;;;;5.93;4.20;;;;;;;;;;5041913;28;20044;-81
2021/09/19 04:40:59;;;;;;;5.38;3.70;;;;;;;;;;5035930;28;20025;-81
2021/09/19 04:43:25;;;;;;;5.13;3.42;;;;;;;;;;5042669;28;20079;-80
2021/09/19 04:45:51;;;;;;;6.63;3.78;;;;;;;;;;5056723;28;20056;-82
2021/09/19 04:48:19;;;;;;;5.30;3.85;;;;;;;;;;5045183;28;20029;-82
2021/09/19 04:50:45;;;;;;;6.55;3.85;;;;;;;;;;5041957;28;20501;-83
2021/09/19 04:53:11;;;;;;;4.68;3.47;;;;;;;;;;5038332;28;20041;-82
2021/09/19 04:55:37;;;;;;;5.72;3.60;;;;;;;;;;5049327;28;20017;-80
2021/09/19 04:58:03;;;;;;;8.50;3.75;;;;;;;;;;5040864;28;20049;-80
2021/09/19 05:00:29;;;;;;;7.47;3.90;;;;;;;;;;5036898;28;20029;-81
2021/09/19 05:02:55;;;;;;;6.40;3.90;;;;;;;;;;5034069;28;20041;-80
2021/09/19 05:05:21;;;;;;;6.75;3.95;;;;;;;;;;5037951;28;20025;-83
2021/09/19 05:07:48;;;;;;;7.93;4.32;;;;;;;;;;5033368;28;20033;-82
2021/09/19 05:10:14;;;;;;;8.18;4.30;;;;;;;;;;5038413;28;20025;-79
2021/09/19 05:12:40;;;;;;;4.88;3.67;;;;;;;;;;5039988;28;20033;-82
2021/09/19 05:15:06;;;;;;;5.18;3.20;;;;;;;;;;5037278;28;20044;-79
2021/09/19 05:17:32;;;;;;;5.93;3.53;;;;;;;;;;5035367;28;20030;-82
2021/09/19 05:19:58;;;;;;;6.55;3.83;;;;;;;;;;5041448;28;20068;-82
2021/09/19 05:22:25;;;;;;;7.50;3.92;;;;;;;;;;5034401;28;20038;-83
2021/09/19 05:24:50;;;;;;;5.32;3.20;;;;;;;;;;5043643;28;20025;-81
2021/09/19 05:27:16;;;;;;;5.93;3.50;;;;;;;;;;5044272;28;20053;-80
2021/09/19 05:29:42;;;;;;;5.28;3.65;;;;;;;;;;5040129;28;20032;-81
2021/09/19 05:32:08;;;;;;;4.97;3.65;;;;;;;;;;5051302;28;20042;-81
2021/09/19 05:34:35;;;;;;;5.45;3.80;;;;;;;;;;5035446;28;20080;-79
2021/09/19 05:37:01;;;;;;;6.88;3.75;;;;;;;;;;5040216;28;20034;-82
2021/09/19 05:39:27;;;;;;;5.88;3.47;;;;;;;;;;5041353;28;20422;-80
2021/09/19 05:41:53;;;;;;;5.20;3.80;;;;;;;;;;5036524;28;20029;-81
2021/09/19 05:44:19;;;;;;;5.15;3.80;;;;;;;;;;5032264;28;20040;-81
2021/09/19 05:46:45;;;;;;;5.35;3.30;;;;;;;;;;5048110;28;20040;-82
2021/09/19 05:49:11;;;;;;;4.13;3.00;;;;;;;;;;5038365;28;20029;-80
2021/09/19 05:51:37;;;;;;;4.90;3.15;;;;;;;;;;5036806;28;20132;-82
2021/09/19 05:54:03;;;;;;;5.65;3.70;;;;;;;;;;5036100;28;20407;-80
2021/09/19 05:56:29;;;;;;;4.43;2.80;;;;;;;;;;5038071;28;20036;-81
2021/09/19 05:58:56;;;;;;;4.57;2.95;;;;;;;;;;5039932;28;20025;-83
2021/09/19 06:01:22;;;;;;;4.97;2.78;;;;;;;;;;5037177;28;20750;-82
2021/09/19 06:03:48;;;;;;;5.30;2.83;;;;;;;;;;5033003;28;20518;-83
2021/09/19 06:06:14;;;;;;;4.90;3.28;;;;;;;;;;5040917;28;20089;-81
2021/09/19 06:08:40;;;;;;;5.55;3.50;;;;;;;;;;5038223;28;20050;-83
2021/09/19 06:11:06;;;;;;;4.78;3.00;;;;;;;;;;5042813;28;20045;-79
2021/09/19 06:13:32;;;;;;;5.40;2.63;;;;;;;;;;5051283;28;20056;-83
2021/09/19 06:15:58;;;;;;;4.57;3.15;;;;;;;;;;5036767;28;20041;-81
2021/09/19 06:18:28;;;;;;;3.80;2.67;;;;;;;;;;5027576;28;20033;-81
2021/09/19 06:20:54;;;;;;;6.20;2.70;;;;;;;;;;5026934;28;20093;-82
2021/09/19 06:23:20;;;;;;;5.93;3.10;;;;;;;;;;5038582;28;20284;-81
2021/09/19 06:25:46;;;;;;;4.18;2.85;;;;;;;;;;5037104;28;20037;-83
2021/09/19 06:28:12;;;;;;;4.10;2.80;;;;;;;;;;5034878;28;20040;-84
2021/09/19 06:30:39;;;;;;;5.20;2.80;;;;;;;;;;5038960;28;20045;-81
2021/09/19 06:33:05;;;;;;;4.90;2.85;;;;;;;;;;5032994;28;20036;-83
2021/09/19 06:35:31;;;;;;;3.55;2.58;;;;;;;;;;5033918;28;20029;-82
2021/09/19 06:37:57;;;;;;;4.85;2.75;;;;;;;;;;5044044;28;20040;-82
2021/09/19 06:40:23;;;;;;;4.25;2.80;;;;;;;;;;5035184;28;20377;-84
2021/09/19 06:42:49;;;;;;;4.65;2.95;;;;;;;;;;5032372;28;20025;-83
2021/09/19 06:45:15;;;;;;;5.95;2.40;;;;;;;;;;5035460;28;20112;-85
2021/09/19 06:47:42;;;;;;;3.92;2.35;;;;;;;;;;5033252;28;20039;-84
2021/09/19 06:50:08;;;;;;;5.25;2.85;;;;;;;;;;5033827;28;20054;-82
2021/09/19 06:52:34;;;;;;;3.42;2.45;;;;;;;;;;5030965;28;20034;-82
2021/09/19 06:55:00;;;;;;;4.18;2.47;;;;;;;;;;5056056;28;20060;-83
2021/09/19 06:57:26;;;;;;;3.08;2.40;;;;;;;;;;5036144;28;20033;-83
2021/09/19 06:59:52;;;;;;;3.22;2.08;;;;;;;;;;5037274;28;20033;-82
2021/09/19 07:02:18;;;;;;;4.20;2.40;;;;;;;;;;5034415;28;20033;-82
2021/09/19 07:04:44;;;;;;;5.68;2.67;;;;;;;;;;5037280;28;20487;-81
2021/09/19 07:07:14;;;;;;;4.30;2.65;;;;;;;;;;5035619;28;20025;-83
2021/09/19 07:09:40;;;;;;;7.50;2.47;;;;;;;;;;5033716;28;20025;-84
2021/09/19 07:12:06;;;;;;;5.40;2.67;;;;;;;;;;5041006;28;20026;-84
2021/09/19 07:14:32;;;;;;;3.42;2.50;;;;;;;;;;5029215;28;20033;-82
2021/09/19 07:16:59;;;;;;;3.92;2.40;;;;;;;;;;5050466;28;20030;-83
2021/09/19 07:19:25;;;;;;;3.92;2.45;;;;;;;;;;5041590;28;20067;-86
2021/09/19 07:21:51;;;;;;;4.38;2.70;;;;;;;;;;5042868;28;20022;-85
2021/09/19 07:24:17;;;;;;;3.83;2.33;;;;;;;;;;5046449;28;20101;-84
2021/09/19 07:26:43;;;;;;;4.05;2.55;;;;;;;;;;5044865;28;20033;-82
2021/09/19 07:29:09;;;;;;;2.80;2.10;;;;;;;;;;5053709;28;20040;-84
2021/09/19 07:31:35;;;;;;;3.22;2.13;;;;;;;;;;5044080;28;20056;-82
2021/09/19 07:34:01;;;;;;;3.70;2.10;;;;;;;;;;5043115;28;20724;-83
2021/09/19 07:36:32;;;;;;;6.35;2.40;;;15.90;99.90;;;;;;5046689;28;20045;-84
2021/09/19 07:39:02;;;;;;;;;;;15.90;99.90;;;;;;5048419;28;20079;-83
2021/09/19 07:41:29;;;;;;;3.20;2.15;;;;;;;;;;5042875;28;19939;-84
2021/09/19 07:43:55;;;;;;;3.85;2.20;;;;;;;;;;5051289;28;20014;-82
2021/09/19 07:46:21;;;;;;;4.28;2.33;;;;;;;;;;5047527;28;20029;-86
2021/09/19 07:48:48;;;;;;;2.72;2.00;;;;;;;;;;5048002;28;20025;-81
2021/09/19 07:51:14;;;;;;;2.67;2.13;;;;;;;;;;5041975;28;20059;-84
2021/09/19 07:53:40;;;;;;;4.20;2.03;;;;;;;;;;5046461;28;20033;-84
2021/09/19 07:56:06;;;;;;;3.75;2.20;;;;;;;;;;5053470;28;20513;-84
2021/09/19 07:58:32;;;;;;;3.88;2.15;;;;;;;;;;5045306;28;20121;-81
2021/09/19 08:00:58;;;;;;;3.50;2.50;;;;;;;;;;5049175;28;20026;-85
2021/09/19 08:03:24;;;;;;;3.80;2.20;;;;;;;;;;5043102;28;20026;-86
2021/09/19 08:05:50;;;;;;;3.95;2.05;;;;;;;;;;5045457;28;20104;-83
2021/09/19 08:08:17;;;;;;;5.75;2.08;;;;;;;;;;5043430;28;20021;-85
2021/09/19 08:10:43;;;;;;;3.40;2.00;;;;;;;;;;5043538;28;20025;-85
2021/09/19 08:13:09;;;;;;;4.82;2.08;;;;;;;;;;5041529;28;20041;-84
2021/09/19 08:15:35;;;;;;;2.60;1.80;;;;;;;;;;5040848;28;20025;-83
2021/09/19 08:18:01;;;;;;;4.35;2.08;;;;;;;;;;5047117;28;20021;-84
2021/09/19 08:20:27;;;;;;;3.05;1.92;;;;;;;;;;5050628;28;20035;-82
2021/09/19 08:22:53;;;;;;;3.35;1.80;;;;;;;;;;5044946;28;20052;-84
2021/09/19 08:25:19;;;;;;;2.58;1.90;;;;;;;;;;5045473;28;20018;-83
2021/09/19 08:27:45;;;;;;;2.97;1.83;;;;;;;;;;5043903;28;20036;-82
2021/09/19 08:30:13;;;;;;;2.92;1.70;;;17.30;99.20;;;;;;5047586;28;20021;-83
2021/09/19 08:32:39;;;;;;;2.60;1.90;;;17.20;99.00;;;;;;5044862;28;20035;-83
2021/09/19 08:35:07;;;;;;;2.35;1.70;;;17.30;99.20;;;;;;5047699;28;20025;-82
2021/09/19 08:37:33;;;;;;;3.95;2.42;;;;;;;;;;5045251;28;20029;-84
2021/09/19 08:39:59;;;;;;;3.92;2.30;;;;;;;;;;5046116;28;20039;-84
2021/09/19 08:42:26;;;;;;;4.20;2.13;;;;;;;;;;5040120;28;20025;-80
2021/09/19 08:44:54;;;;;;;2.95;1.80;;;;;;;;;;5049192;28;20582;-82
2021/09/19 08:47:21;;;;;;;2.60;1.73;;;17.60;98.60;;;;;;5049029;28;20028;-86
2021/09/19 08:49:47;;;;;;;2.97;1.73;;;;;;;;;;5045404;28;20025;-83
2021/09/19 08:52:13;;;;;;;2.88;1.85;;;;;;;;;;5038986;28;20037;-81
2021/09/19 08:54:40;;;;;;;3.20;2.20;;;17.60;98.60;;;;;;5046443;28;20035;-84
2021/09/19 08:57:06;;;;;;;2.80;1.85;;;;;;;;;;5043425;28;20037;-83
2021/09/19 08:59:52;;;;;;;3.30;1.77;;;17.90;98.20;;;;;;5036650;28;20108;-83
2021/09/19 09:02:20;;;;;;;2.67;1.70;;;;;;;;;;5044203;28;20026;-83
2021/09/19 09:04:46;;;;;;;2.95;2.03;;;;;;;;;;5043256;28;20030;-83
2021/09/19 09:07:13;;;;;;;2.70;1.92;;;18.10;98.00;;;;;;5036758;28;20041;-85
2021/09/19 09:09:51;;;;;;;4.90;2.38;;;;;;;;;;5042164;28;20065;-83
2021/09/19 09:12:38;;;;;;;2.90;1.60;;;;;;;;;;5029187;28;20454;-86
2021/09/19 09:15:05;;;;;;;3.42;2.00;;;;;;;;;;5029062;28;20069;-81
2021/09/19 09:17:31;;;;;;;3.00;2.05;;;;;;;;;;5053416;28;20035;-84
2021/09/19 09:19:59;;;;;;;4.63;2.20;;;;;;;;;;5039360;28;20041;-81
2021/09/19 09:22:26;;;;;;;3.83;2.00;;;;;;;;;;5028315;28;20029;-82
2021/09/19 09:25:07;;;;;;;3.17;2.05;;;;;;;;;;5034840;28;20049;-83
2021/09/19 09:27:37;;;;;;;2.97;2.00;;;;;;;;;;5036251;28;20034;-82
2021/09/19 09:30:08;;;;;;;;;;;18.90;96.80;;;;;;5035431;28;20029;-83
2021/09/19 09:32:57;;;;;;;4.00;2.20;;;18.90;96.80;;;;;;5044455;28;19972;-81
2021/09/19 09:35:37;;;;;;;3.33;2.10;;;19.00;96.60;;;;;;5034846;28;20032;-83
2021/09/19 09:38:20;;;;;;;4.20;2.13;;;18.90;98.70;;;;;;5042327;28;20071;-82
2021/09/19 09:40:47;;;;;;;3.28;2.20;;;;;;;;;;5039237;28;20040;-82
2021/09/19 09:43:15;;;;;;;2.67;1.80;;;19.50;96.20;;;;;;5049972;28;20034;-83
2021/09/19 09:45:42;;;;;;;3.25;2.08;;;19.60;95.80;;;;;;5047621;28;20028;-84
2021/09/19 09:48:27;;;;;;;2.95;1.90;;;19.40;96.10;;;;;;5049142;28;20052;-82
2021/09/19 09:50:54;;;;;;;3.92;2.25;;;19.50;95.90;;;;;;5042065;28;20038;-83
2021/09/19 09:53:24;;;;;;;3.20;2.33;;;;;;;;;;5058932;28;20025;-84
2021/09/19 09:55:51;;;;;;;6.30;3.10;;;19.60;95.80;;;;;;5047250;28;20025;-84
2021/09/19 09:58:18;;;;;;;5.03;2.65;;;;;;;;;;5038164;28;20041;-83
2021/09/19 10:00:50;;;;;;;3.08;2.20;;;19.50;95.90;;;;;;5042013;28;20071;-84
2021/09/19 10:03:19;;;;;;;3.70;2.38;;;;;;;;;;5046448;28;20483;-82
2021/09/19 10:05:45;;;;;;;3.40;2.43;;;;;;;;;;5045498;28;20021;-84
2021/09/19 10:08:11;;;;;;;4.00;2.72;;;;;;;;;;5035425;28;20031;-83
2021/09/19 10:10:40;;;;;;;3.20;2.38;;;19.80;95.50;;;;;;5046550;28;20081;-84
2021/09/19 10:13:08;;;;;;;3.85;2.80;;;19.70;95.50;;;;;;5042297;28;20570;-83
2021/09/19 10:15:34;;;;;;;3.03;2.28;;;;;;;;;;5053761;28;20017;-81
2021/09/19 10:18:42;;;;;;;5.70;3.50;;;;;;;;;;5043564;28;20049;-86
2021/09/19 10:21:08;;;;;;;4.00;2.70;;;;;;;;;;5027174;28;20044;-83
2021/09/19 10:23:38;;;;;;;4.80;2.85;;;;;;;;;;5044330;28;20483;-85
2021/09/19 10:26:08;;;;;;;4.45;2.88;;;;;;;;;;5041444;28;20032;-86
2021/09/19 10:28:39;;;;;;;5.97;3.28;;;;;;;;;;5032306;28;20033;-81
2021/09/19 10:31:11;;;;;;;6.25;3.10;;;;;;;;;;5034961;28;20081;-84
2021/09/19 10:33:39;;;;;;;3.70;2.67;;;;;;;;;;5046334;28;20117;-84
2021/09/19 10:36:24;;;;;;;4.47;3.50;;;;;;;;;;5030197;28;20040;-85
2021/09/19 10:38:51;;;;;;;4.15;2.83;;;;;;;;;;5023180;28;20040;-83
2021/09/19 10:41:18;;;;;;;5.53;3.10;;;;;;;;;;5029851;28;20033;-85
2021/09/19 10:43:51;;;;;;;4.10;3.10;;;;;;;;;;5032605;28;20033;-84
2021/09/19 10:46:36;;;;;;;4.50;2.90;;;;;;;;;;5031122;28;20021;-84
2021/09/19 10:49:28;;;;;;;4.70;3.15;;;;;;;;;;5026323;28;20167;-84
2021/09/19 10:52:01;;;;;;;5.07;3.42;;;;;;;;;;5024089;28;20071;-83
2021/09/19 10:54:49;;;;;;;5.30;3.17;;;;;;;;;;5029937;28;20581;-83
2021/09/19 10:57:16;;;;;;;5.00;3.30;;;;;;;;;;5029353;28;20033;-84
2021/09/19 11:00:02;;;;;;;5.25;3.00;;;;;;;;;;5038057;28;20060;-84
2021/09/19 11:02:29;;;;;;;5.88;2.95;;;;;;;;;;5050971;28;20059;-84
2021/09/19 11:05:24;;;;;;;4.63;2.97;;;20.10;94.40;;;;;;5029743;28;20021;-86
2021/09/19 11:07:51;;;;;;;5.22;2.85;;;;;;;;;;5033208;28;20565;-86
2021/09/19 11:10:20;;;;;;;5.32;3.22;;;;;;;;;;5032130;28;20037;-82
2021/09/19 11:12:50;;;;;;;5.25;3.25;;;;;;;;;;5036401;28;20029;-84
2021/09/19 11:15:22;;;;;;;3.90;2.95;;;;;;;;;;5041014;28;20060;-86
2021/09/19 11:17:49;;;;;;;6.22;3.10;;;;;;;;;;5039483;28;20025;-83
2021/09/19 11:20:21;;;;;;;5.88;3.50;;;;;;;;;;5030175;28;20503;-84
2021/09/19 11:22:47;;;;;;;4.55;2.58;;;;;;;;;;5034536;28;20033;-83
2021/09/19 11:25:13;;;;;;;5.35;2.97;;;;;;;;;;5036432;28;20032;-86
2021/09/19 11:27:41;;;;;;;4.60;3.38;;;;;;;;;;5065499;28;20025;-83
2021/09/19 11:30:08;;;;;;;4.13;2.47;;;;;;;;;;5053207;28;20052;-86
2021/09/19 11:32:36;;;;;;;3.78;2.42;;;;;;;;;;5047141;28;20032;-84
2021/09/19 11:35:03;;;;;;;3.90;2.90;;;;;;;;;;5041473;28;20028;-83
2021/09/19 11:37:29;;;;;;;4.45;2.92;;;;;;;;;;5048155;28;20029;-83
2021/09/19 11:39:59;;;;;;;5.32;2.72;;;;;;;;;;5043592;28;20032;-85
2021/09/19 11:42:31;;;;;;;3.80;2.65;;;21.10;91.80;;;;;;5033750;28;20052;-86
2021/09/19 11:44:57;;;;;;;5.25;2.80;;;;;;;;;;5034845;28;20036;-85
2021/09/19 11:47:24;;;;;;;5.75;2.97;;;;;;;;;;5037033;28;20029;-85
2021/09/19 11:49:52;;;;;;;4.35;3.00;;;;;;;;;;5032500;28;20021;-85
2021/09/19 11:52:19;;;;;;;5.57;3.10;;;;;;;;;;5052307;28;20041;-83
2021/09/19 11:54:46;;;;;;;3.70;2.83;;;;;;;;;;5039991;28;20125;-87
2021/09/19 11:57:12;;;;;;;4.07;2.78;;;;;;;;;;5031533;28;20045;-84
2021/09/19 11:59:43;;;;;;;4.05;2.85;;;;;;;;;;5043372;28;20120;-84
2021/09/19 12:02:10;;;;;;;4.35;3.20;;;;;;;;;;5047981;28;20026;-87
2021/09/19 12:04:36;;;;;;;4.47;2.97;;;;;;;;;;5039099;28;20033;-83
2021/09/19 12:07:06;;;;;;;4.25;3.08;;;;;;;;;;5037691;28;20112;-84
2021/09/19 12:09:32;;;;;;;4.00;2.80;;;;;;;;;;5043258;28;20021;-88
2021/09/19 12:11:58;;;;;;;5.00;2.50;;;;;;;;;;5056129;28;20025;-85
2021/09/19 12:14:26;;;;;;;4.20;2.83;;;21.90;90.40;;;;;;5038607;28;20097;-83
2021/09/19 12:17:06;;;;;;;3.13;2.35;;;;;;;;;;5037817;28;20029;-85
2021/09/19 12:19:33;;;;;;;8.35;3.80;;;;;;;;;;5048879;28;20053;-85
2021/09/19 12:22:09;;;;;;;2.95;2.35;;;;;;;;;;5043060;28;20046;-85
2021/09/19 12:24:36;;;;;;;5.30;2.53;;;;;;;;;;5047248;28;20087;-86
2021/09/19 12:27:28;;;;;;;4.05;2.65;;;;;;;;;;5041127;28;20491;-85
2021/09/19 12:30:07;;;;;;;3.63;2.70;;;;;;;;;;5034637;28;20125;-87
2021/09/19 12:32:42;;;;;;;5.22;3.00;;;;;;;;;;5040118;28;20101;-84
2021/09/19 12:35:10;;;;;;;5.03;3.17;;;;;;;;;;5037372;28;20044;-83
2021/09/19 12:37:37;;;;;;;4.18;2.70;;;;;;;;;;5042500;28;20026;-86
2021/09/19 12:40:08;;;;;;;3.67;2.50;;;;;;;;;;5036364;28;20041;-83
2021/09/19 12:42:34;;;;;;;4.20;2.60;;;;;;;;;;5033916;28;20038;-85
2021/09/19 12:45:00;;;;;;;4.18;2.60;;;;;;;;;;5033988;28;20017;-85
2021/09/19 12:47:31;;;;;;;4.38;2.47;;;;;;;;;;5035521;28;20029;-84
2021/09/19 12:49:57;;;;;;;3.70;2.42;;;;;;;;;;5040931;28;20025;-86
2021/09/19 12:52:30;;;;;;;4.15;2.80;;;;;;;;;;5035026;28;20431;-84
2021/09/19 12:54:57;;;;;;;2.95;2.13;;;;;;;;;;5049572;28;20496;-83
2021/09/19 12:57:24;;;;;;;5.00;3.03;;;;;;;;;;5033225;28;20033;-82
2021/09/19 12:59:50;;;;;;;4.43;3.03;;;;;;;;;;5032984;28;20026;-84
2021/09/19 13:02:17;;;;;;;3.85;2.80;;;;;;;;;;5033797;28;20108;-85
2021/09/19 13:04:52;;;;;;;4.60;3.17;;;;;;;;;;5036035;28;20057;-86
2021/09/19 13:07:26;;;;;;;3.90;2.80;;;;;;;;;;5032921;28;20035;-87
2021/09/19 13:09:52;;;;;;;4.53;2.75;;;;;;;;;;5050726;28;20021;-86
2021/09/19 13:12:18;;;;;;;3.70;2.60;;;;;;;;;;5033420;28;20059;-85
2021/09/19 13:14:44;;;;;;;10.25;3.20;;;;;;;;;;5038002;28;20060;-85
2021/09/19 13:17:10;;;;;;;3.58;2.42;;;;;;;;;;5029087;28;20022;-87
2021/09/19 13:19:37;;;;;;;4.43;2.75;;;;;;;;;;5034508;28;20030;-86
2021/09/19 13:22:03;;;;;;;3.30;2.53;;;;;;;;;;5036315;28;20049;-88
2021/09/19 13:24:29;;;;;;;4.75;2.83;;;;;;;;;;5035961;28;20025;-85
2021/09/19 13:26:56;;;;;;;6.18;2.88;;;;;;;;;;5028506;28;20041;-83
2021/09/19 13:29:22;;;;;;;4.20;2.80;;;;;;;;;;5038905;28;20017;-86
2021/09/19 13:31:49;;;;;;;5.40;2.70;;;;;;;;;;5046759;28;20029;-84
2021/09/19 13:34:15;;;;;;;4.38;2.65;;;;;;;;;;5046545;28;20060;-88
2021/09/19 13:36:41;;;;;;;3.33;2.40;;;;;;;;;;5029516;28;20037;-87
2021/09/19 13:39:08;;;;;;;4.00;2.50;;;;;;;;;;5033523;28;20041;-86
2021/09/19 13:41:34;;;;;;;3.80;2.70;;;;;;;;;;5027839;28;20029;-85
2021/09/19 13:44:00;;;;;;;3.88;2.70;;;;;;;;;;5036407;28;20053;-87
2021/09/19 13:46:26;;;;;;;4.28;2.58;;;;;;;;;;5033089;28;20233;-86
2021/09/19 13:48:52;;;;;;;3.95;2.97;;;;;;;;;;5046665;28;20036;-83
2021/09/19 13:51:19;;;;;;;4.20;2.80;;;;;;;;;;5031408;28;20044;-86
2021/09/19 13:53:45;;;;;;;3.60;2.53;;;;;;;;;;5026179;28;20113;-87
2021/09/19 13:56:11;;;;;;;4.72;3.42;;;;;;;;;;5036316;28;20049;-87
2021/09/19 13:58:38;;;;;;;3.88;2.90;;;;;;;;;;5039530;28;20033;-84
2021/09/19 14:01:04;;;;;;;4.07;2.90;;;;;;;;;;5043869;28;20029;-89
2021/09/19 14:03:32;;;;;;;4.70;3.13;;;;;;;;;;5035947;28;20028;-85
2021/09/19 14:05:58;;;;;;;4.13;3.00;;;;;;;;;;5037577;28;20062;-87
2021/09/19 14:08:24;;;;;;;7.85;2.95;;;;;;;;;;5046520;28;20033;-84
2021/09/19 14:10:50;;;;;;;3.60;2.92;;;;;;;;;;5030094;28;20030;-85
2021/09/19 14:13:16;;;;;;;4.10;3.00;;;;;;;;;;5036250;28;20025;-86
2021/09/19 14:15:43;;;;;;;4.07;2.85;;;;;;;;;;5039814;28;20403;-82
2021/09/19 14:18:10;;;;;;;4.25;2.72;;;;;;;;;;5037465;28;20026;-85
2021/09/19 14:20:36;;;;;;;5.70;4.10;;;;;;;;;;5036619;28;20045;-83
2021/09/19 14:23:02;;;;;;;5.35;2.83;;;;;;;;;;5039816;28;20056;-86
2021/09/19 14:25:28;;;;;;;4.93;2.70;;;;;;;;;;5035472;28;20033;-86
2021/09/19 14:27:56;;;;;;;4.18;2.83;;;;;;;;;;5041452;28;20025;-86
2021/09/19 14:30:22;;;;;;;3.33;2.58;;;;;;;;;;5037602;28;20458;-87